createdAt,value
2018-02-06T00:01:29.068Z,52.5
2018-02-06T00:11:27.164Z,55.3
2018-02-06T00:21:27.710Z,56.9
2018-02-06T00:31:26.297Z,60.3
2018-02-06T00:41:27.320Z,61.9
2018-02-06T00:51:27.612Z,72.1
2018-02-06T01:01:28.143Z,65.8
2018-02-06T01:11:27.164Z,64.9
2018-02-06T01:21:26.825Z,63.3
2018-02-06T01:31:26.366Z,77.4
2018-02-06T01:41:27.254Z,85.9
2018-02-06T01:51:26.874Z,96.2
2018-02-06T02:01:26.253Z,100.7
2018-02-06T02:11:26.741Z,107.3
2018-02-06T02:21:26.316Z,96.4
2018-02-06T02:31:26.676Z,96.6
2018-02-06T02:41:27.234Z,91.6
2018-02-06T04:41:27.543Z,95.0
2018-02-06T04:51:29.231Z,108.6
2018-02-06T05:01:26.996Z,101.7
2018-02-06T05:11:26.319Z,112.8
2018-02-06T05:21:26.921Z,107.9
2018-02-06T05:31:27.092Z,101.8
2018-02-06T05:41:26.403Z,91.8
2018-02-06T05:51:27.834Z,93.9
2018-02-06T06:01:27.603Z,113.8
2018-02-06T06:11:27.568Z,100.7
2018-02-06T06:21:26.488Z,129.1
2018-02-06T06:31:27.140Z,129.0
2018-02-06T06:41:26.810Z,106.9
2018-02-06T06:51:26.883Z,123.6
2018-02-06T07:01:26.474Z,110.9
2018-02-06T07:11:26.976Z,129.4
2018-02-06T07:21:27.599Z,112.8
2018-02-06T07:31:29.067Z,100.4
2018-02-06T07:41:27.983Z,90.2
2018-02-06T07:51:28.771Z,77.8
2018-02-06T08:01:26.168Z,88.7
2018-02-06T08:11:27.114Z,83.6
2018-02-06T08:21:27.828Z,71.5
2018-02-06T08:31:26.552Z,54.2
2018-02-06T08:41:26.870Z,69.3
2018-02-06T08:51:27.182Z,52.9
2018-02-06T09:01:26.934Z,49.0
2018-02-06T09:11:28.717Z,38.1
2018-02-06T09:21:26.944Z,42.4
2018-02-06T09:31:26.512Z,40.4
2018-02-06T09:41:27.416Z,38.0
2018-02-06T09:51:26.791Z,33.4
2018-02-06T10:01:27.441Z,28.4
2018-02-06T10:11:28.010Z,34.9
2018-02-06T10:21:26.872Z,35.5
2018-02-06T10:31:26.705Z,36.7
2018-02-06T10:41:28.258Z,34.6
2018-02-06T10:51:26.749Z,35.1
2018-02-06T11:01:28.729Z,33.7
2018-02-06T11:11:28.252Z,27.6
2018-02-06T11:21:26.961Z,28.9
2018-02-06T11:31:26.380Z,25.8
2018-02-06T11:41:27.403Z,20.3
2018-02-06T11:51:26.212Z,27.7
2018-02-06T12:01:27.179Z,13.7
2018-02-06T12:11:27.455Z,12.9
2018-02-06T12:21:26.879Z,20.6
2018-02-06T12:31:26.414Z,17.2
2018-02-06T12:41:27.661Z,19.3
2018-02-06T12:51:30.598Z,15.0
2018-02-06T13:01:27.105Z,22.3
2018-02-06T13:11:26.633Z,14.3
2018-02-06T13:21:26.586Z,15.6
2018-02-06T13:31:27.472Z,17.1
2018-02-06T13:41:27.244Z,20.5
2018-02-06T13:51:26.715Z,18.7
2018-02-06T14:01:26.684Z,14.9
2018-02-06T14:11:26.200Z,16.6
2018-02-06T14:21:26.888Z,16.1
2018-02-06T14:31:27.070Z,19.6
2018-02-06T14:41:27.455Z,21.0
2018-02-06T14:51:27.785Z,22.6
2018-02-06T15:01:26.186Z,21.1
2018-02-06T15:11:26.626Z,18.4
2018-02-06T15:21:26.414Z,26.0
2018-02-06T15:31:27.056Z,25.1
2018-02-06T15:41:26.657Z,34.8
2018-02-06T15:51:27.417Z,30.7
2018-02-06T16:01:27.017Z,24.2
2018-02-06T16:11:27.140Z,31.7
2018-02-06T16:21:31.718Z,26.7
2018-02-06T16:31:27.609Z,29.6
2018-02-06T16:41:27.671Z,31.2
2018-02-06T16:51:28.857Z,36.1
2018-02-06T17:01:26.405Z,36.4
2018-02-06T17:11:27.550Z,39.6
2018-02-06T17:21:27.451Z,54.9
2018-02-06T17:31:27.114Z,52.9
2018-02-06T17:41:27.699Z,53.6
2018-02-06T17:51:26.992Z,62.1
2018-02-06T18:01:27.416Z,59.2
2018-02-06T18:11:26.881Z,76.7
2018-02-06T18:21:26.558Z,94.9
2018-02-06T18:31:27.228Z,94.4
2018-02-06T18:41:28.607Z,94.9
2018-02-06T18:51:27.627Z,100.1
2018-02-06T19:01:29.508Z,92.9
2018-02-06T19:11:27.635Z,103.0
2018-02-06T19:21:26.771Z,99.2
2018-02-06T19:31:27.739Z,100.9
2018-02-06T19:41:26.340Z,106.6
2018-02-06T19:51:27.122Z,103.0
2018-02-06T20:01:27.243Z,103.0
2018-02-06T20:11:28.810Z,120.7
2018-02-06T20:21:26.846Z,113.7
2018-02-06T20:31:26.971Z,104.7
2018-02-06T20:41:26.522Z,117.4
2018-02-06T20:51:27.533Z,118.2
2018-02-06T21:01:27.283Z,103.1
2018-02-06T21:11:27.055Z,111.0
2018-02-06T21:21:26.797Z,131.1
2018-02-06T21:31:26.339Z,118.7
2018-02-06T21:41:27.390Z,133.4
2018-02-06T21:51:26.951Z,147.0
2018-02-06T22:01:27.008Z,124.3
2018-02-06T22:11:27.106Z,102.6
2018-02-06T22:21:27.841Z,91.4
2018-02-06T22:31:27.075Z,92.3
2018-02-06T22:41:26.615Z,98.0
2018-02-06T22:51:27.117Z,84.3
2018-02-06T23:01:26.917Z,104.4
2018-02-06T23:11:27.388Z,97.1
2018-02-06T23:21:27.192Z,98.0
2018-02-06T23:31:26.899Z,101.3
2018-02-06T23:41:27.410Z,117.5
2018-02-06T23:51:26.651Z,111.5
